sensor_id;sensor_type;location;lat;lon;timestamp;P1;durP1;ratioP1;P2;durP2;ratioP2
22284;SDS011;11311;52.192;20.900;2023-08-06T00:00:54;47.72;;;25.80;;
22284;SDS011;11311;52.192;20.900;2023-08-06T00:05:52;51.00;;;26.58;;
22284;SDS011;11311;52.192;20.900;2023-08-06T00:08:21;53.92;;;27.48;;
22284;SDS011;11311;52.192;20.900;2023-08-06T00:10:50;61.63;;;28.60;;
22284;SDS011;11311;52.192;20.900;2023-08-06T00:13:18;62.88;;;30.23;;
22284;SDS011;11311;52.192;20.900;2023-08-06T00:15:47;79.15;;;31.33;;
22284;SDS011;11311;52.192;20.900;2023-08-06T00:18:18;94.47;;;37.38;;
22284;SDS011;11311;52.192;20.900;2023-08-06T00:23:15;88.05;;;35.08;;
22284;SDS011;11311;52.192;20.900;2023-08-06T00:25:44;78.82;;;34.47;;
22284;SDS011;11311;52.192;20.900;2023-08-06T00:28:13;69.65;;;32.13;;
22284;SDS011;11311;52.192;20.900;2023-08-06T00:30:42;63.22;;;32.63;;
22284;SDS011;11311;52.192;20.900;2023-08-06T00:33:11;56.40;;;32.17;;
22284;SDS011;11311;52.192;20.900;2023-08-06T00:35:42;59.15;;;32.70;;
22284;SDS011;11311;52.192;20.900;2023-08-06T00:40:39;57.40;;;29.80;;
22284;SDS011;11311;52.192;20.900;2023-08-06T00:43:08;54.67;;;30.25;;
22284;SDS011;11311;52.192;20.900;2023-08-06T00:45:36;63.38;;;31.92;;
22284;SDS011;11311;52.192;20.900;2023-08-06T00:48:06;53.20;;;29.98;;
22284;SDS011;11311;52.192;20.900;2023-08-06T00:50:35;52.30;;;29.63;;
22284;SDS011;11311;52.192;20.900;2023-08-06T00:53:05;58.65;;;30.70;;
22284;SDS011;11311;52.192;20.900;2023-08-06T00:58:03;42.10;;;27.83;;
22284;SDS011;11311;52.192;20.900;2023-08-06T01:00:33;55.67;;;29.15;;
22284;SDS011;11311;52.192;20.900;2023-08-06T01:03:02;45.10;;;28.52;;
22284;SDS011;11311;52.192;20.900;2023-08-06T01:05:31;54.85;;;28.27;;
22284;SDS011;11311;52.192;20.900;2023-08-06T01:08:04;54.92;;;30.20;;
22284;SDS011;11311;52.192;20.900;2023-08-06T01:10:48;54.67;;;30.05;;
22284;SDS011;11311;52.192;20.900;2023-08-06T01:13:37;45.47;;;27.25;;
22284;SDS011;11311;52.192;20.900;2023-08-06T01:16:11;49.45;;;28.27;;
22284;SDS011;11311;52.192;20.900;2023-08-06T01:18:42;43.03;;;26.42;;
22284;SDS011;11311;52.192;20.900;2023-08-06T01:21:15;39.97;;;27.65;;
22284;SDS011;11311;52.192;20.900;2023-08-06T01:23:44;40.92;;;25.88;;
22284;SDS011;11311;52.192;20.900;2023-08-06T01:26:17;40.38;;;25.40;;
22284;SDS011;11311;52.192;20.900;2023-08-06T01:28:53;57.25;;;30.23;;
22284;SDS011;11311;52.192;20.900;2023-08-06T01:31:29;39.17;;;25.27;;
22284;SDS011;11311;52.192;20.900;2023-08-06T01:34:00;39.80;;;26.23;;
22284;SDS011;11311;52.192;20.900;2023-08-06T01:36:32;42.83;;;26.67;;
22284;SDS011;11311;52.192;20.900;2023-08-06T01:39:02;53.05;;;27.58;;
22284;SDS011;11311;52.192;20.900;2023-08-06T01:41:33;46.28;;;27.83;;
22284;SDS011;11311;52.192;20.900;2023-08-06T01:44:03;37.30;;;25.25;;
22284;SDS011;11311;52.192;20.900;2023-08-06T01:46:32;34.92;;;25.33;;
22284;SDS011;11311;52.192;20.900;2023-08-06T01:49:01;41.72;;;26.05;;
22284;SDS011;11311;52.192;20.900;2023-08-06T01:51:29;30.77;;;23.33;;
22284;SDS011;11311;52.192;20.900;2023-08-06T01:54:00;35.53;;;24.52;;
22284;SDS011;11311;52.192;20.900;2023-08-06T01:56:29;33.28;;;23.42;;
22284;SDS011;11311;52.192;20.900;2023-08-06T01:58:58;44.00;;;26.83;;
22284;SDS011;11311;52.192;20.900;2023-08-06T02:01:30;31.73;;;23.90;;
22284;SDS011;11311;52.192;20.900;2023-08-06T02:03:59;36.90;;;24.77;;
22284;SDS011;11311;52.192;20.900;2023-08-06T02:06:28;30.38;;;22.98;;
22284;SDS011;11311;52.192;20.900;2023-08-06T02:08:57;30.92;;;22.38;;
22284;SDS011;11311;52.192;20.900;2023-08-06T02:11:28;27.45;;;20.65;;
22284;SDS011;11311;52.192;20.900;2023-08-06T02:13:56;27.73;;;20.52;;
22284;SDS011;11311;52.192;20.900;2023-08-06T02:16:25;25.10;;;19.30;;
22284;SDS011;11311;52.192;20.900;2023-08-06T02:18:54;26.40;;;19.73;;
22284;SDS011;11311;52.192;20.900;2023-08-06T02:21:23;27.40;;;18.40;;
22284;SDS011;11311;52.192;20.900;2023-08-06T02:23:53;30.85;;;21.33;;
22284;SDS011;11311;52.192;20.900;2023-08-06T02:26:22;29.90;;;19.50;;
22284;SDS011;11311;52.192;20.900;2023-08-06T02:28:51;29.85;;;20.02;;
22284;SDS011;11311;52.192;20.900;2023-08-06T02:33:49;28.60;;;19.85;;
22284;SDS011;11311;52.192;20.900;2023-08-06T02:36:18;26.08;;;19.27;;
22284;SDS011;11311;52.192;20.900;2023-08-06T02:38:47;24.73;;;18.77;;
22284;SDS011;11311;52.192;20.900;2023-08-06T02:41:16;32.50;;;22.23;;
22284;SDS011;11311;52.192;20.900;2023-08-06T02:43:44;27.00;;;19.58;;
22284;SDS011;11311;52.192;20.900;2023-08-06T02:46:15;29.65;;;20.52;;
22284;SDS011;11311;52.192;20.900;2023-08-06T02:51:13;25.92;;;18.83;;
22284;SDS011;11311;52.192;20.900;2023-08-06T02:53:42;24.90;;;18.10;;
22284;SDS011;11311;52.192;20.900;2023-08-06T02:56:14;22.70;;;17.55;;
22284;SDS011;11311;52.192;20.900;2023-08-06T02:58:54;34.65;;;20.95;;
22284;SDS011;11311;52.192;20.900;2023-08-06T03:01:43;28.38;;;19.83;;
22284;SDS011;11311;52.192;20.900;2023-08-06T03:04:19;24.40;;;19.73;;
22284;SDS011;11311;52.192;20.900;2023-08-06T03:09:22;23.20;;;18.70;;
22284;SDS011;11311;52.192;20.900;2023-08-06T03:11:52;23.75;;;19.65;;
22284;SDS011;11311;52.192;20.900;2023-08-06T03:14:21;20.60;;;17.63;;
22284;SDS011;11311;52.192;20.900;2023-08-06T03:16:51;26.85;;;19.30;;
22284;SDS011;11311;52.192;20.900;2023-08-06T03:21:48;25.52;;;19.38;;
22284;SDS011;11311;52.192;20.900;2023-08-06T03:24:18;34.80;;;22.73;;
22284;SDS011;11311;52.192;20.900;2023-08-06T03:26:47;27.02;;;19.27;;
22284;SDS011;11311;52.192;20.900;2023-08-06T03:29:16;29.65;;;20.70;;
22284;SDS011;11311;52.192;20.900;2023-08-06T03:31:46;30.17;;;20.17;;
22284;SDS011;11311;52.192;20.900;2023-08-06T03:34:18;30.50;;;22.25;;
22284;SDS011;11311;52.192;20.900;2023-08-06T03:36:49;33.60;;;23.75;;
22284;SDS011;11311;52.192;20.900;2023-08-06T03:39:18;36.13;;;24.48;;
22284;SDS011;11311;52.192;20.900;2023-08-06T03:41:47;29.38;;;21.60;;
22284;SDS011;11311;52.192;20.900;2023-08-06T03:44:16;38.50;;;23.90;;
22284;SDS011;11311;52.192;20.900;2023-08-06T03:46:48;28.90;;;23.25;;
22284;SDS011;11311;52.192;20.900;2023-08-06T03:49:18;31.15;;;24.75;;
22284;SDS011;11311;52.192;20.900;2023-08-06T03:54:16;28.50;;;23.33;;
22284;SDS011;11311;52.192;20.900;2023-08-06T03:56:45;30.30;;;23.53;;
22284;SDS011;11311;52.192;20.900;2023-08-06T04:01:46;33.08;;;25.33;;
22284;SDS011;11311;52.192;20.900;2023-08-06T04:04:15;28.77;;;23.25;;
22284;SDS011;11311;52.192;20.900;2023-08-06T04:06:45;34.10;;;26.48;;
22284;SDS011;11311;52.192;20.900;2023-08-06T04:11:43;32.10;;;24.05;;
22284;SDS011;11311;52.192;20.900;2023-08-06T04:14:12;34.25;;;25.98;;
22284;SDS011;11311;52.192;20.900;2023-08-06T04:16:41;30.58;;;24.77;;
22284;SDS011;11311;52.192;20.900;2023-08-06T04:19:10;28.67;;;24.13;;
22284;SDS011;11311;52.192;20.900;2023-08-06T04:21:41;26.55;;;23.70;;
22284;SDS011;11311;52.192;20.900;2023-08-06T04:24:12;28.48;;;24.42;;
22284;SDS011;11311;52.192;20.900;2023-08-06T04:29:10;27.05;;;23.30;;
22284;SDS011;11311;52.192;20.900;2023-08-06T04:31:38;30.05;;;25.65;;
22284;SDS011;11311;52.192;20.900;2023-08-06T04:34:07;32.72;;;25.58;;
22284;SDS011;11311;52.192;20.900;2023-08-06T04:36:38;29.45;;;25.85;;
22284;SDS011;11311;52.192;20.900;2023-08-06T04:39:08;27.48;;;23.42;;
22284;SDS011;11311;52.192;20.900;2023-08-06T04:41:39;34.13;;;25.13;;
22284;SDS011;11311;52.192;20.900;2023-08-06T04:44:08;28.05;;;25.15;;
22284;SDS011;11311;52.192;20.900;2023-08-06T04:46:36;31.70;;;24.67;;
22284;SDS011;11311;52.192;20.900;2023-08-06T04:49:05;32.85;;;23.75;;
22284;SDS011;11311;52.192;20.900;2023-08-06T04:51:34;26.17;;;23.10;;
22284;SDS011;11311;52.192;20.900;2023-08-06T04:54:03;26.88;;;23.77;;
22284;SDS011;11311;52.192;20.900;2023-08-06T04:56:32;25.27;;;21.80;;
22284;SDS011;11311;52.192;20.900;2023-08-06T04:59:02;24.17;;;21.60;;
22284;SDS011;11311;52.192;20.900;2023-08-06T05:01:31;24.75;;;22.20;;
22284;SDS011;11311;52.192;20.900;2023-08-06T05:04:00;25.60;;;21.42;;
22284;SDS011;11311;52.192;20.900;2023-08-06T05:06:29;21.55;;;19.40;;
22284;SDS011;11311;52.192;20.900;2023-08-06T05:08:59;22.15;;;20.02;;
22284;SDS011;11311;52.192;20.900;2023-08-06T05:11:28;22.13;;;18.98;;
22284;SDS011;11311;52.192;20.900;2023-08-06T05:13:57;20.52;;;18.45;;
22284;SDS011;11311;52.192;20.900;2023-08-06T05:16:26;20.15;;;18.13;;
22284;SDS011;11311;52.192;20.900;2023-08-06T05:18:55;21.00;;;18.58;;
22284;SDS011;11311;52.192;20.900;2023-08-06T05:21:24;19.55;;;17.67;;
22284;SDS011;11311;52.192;20.900;2023-08-06T05:23:53;18.15;;;16.35;;
22284;SDS011;11311;52.192;20.900;2023-08-06T05:26:22;18.27;;;16.35;;
22284;SDS011;11311;52.192;20.900;2023-08-06T05:28:51;18.23;;;16.30;;
22284;SDS011;11311;52.192;20.900;2023-08-06T05:31:19;17.05;;;15.45;;
22284;SDS011;11311;52.192;20.900;2023-08-06T05:33:51;18.33;;;16.63;;
22284;SDS011;11311;52.192;20.900;2023-08-06T05:38:49;16.50;;;14.85;;
22284;SDS011;11311;52.192;20.900;2023-08-06T05:41:18;19.50;;;14.25;;
22284;SDS011;11311;52.192;20.900;2023-08-06T05:43:47;14.95;;;13.55;;
22284;SDS011;11311;52.192;20.900;2023-08-06T05:46:15;15.25;;;13.75;;
22284;SDS011;11311;52.192;20.900;2023-08-06T05:48:44;14.23;;;12.75;;
22284;SDS011;11311;52.192;20.900;2023-08-06T05:51:15;16.60;;;12.85;;
22284;SDS011;11311;52.192;20.900;2023-08-06T05:53:44;14.50;;;12.68;;
22284;SDS011;11311;52.192;20.900;2023-08-06T05:56:14;14.45;;;12.73;;
22284;SDS011;11311;52.192;20.900;2023-08-06T05:58:42;13.90;;;12.52;;
22284;SDS011;11311;52.192;20.900;2023-08-06T06:01:13;13.80;;;11.93;;
22284;SDS011;11311;52.192;20.900;2023-08-06T06:03:43;16.47;;;11.87;;
22284;SDS011;11311;52.192;20.900;2023-08-06T06:06:12;12.48;;;11.15;;
22284;SDS011;11311;52.192;20.900;2023-08-06T06:08:44;18.80;;;11.38;;
22284;SDS011;11311;52.192;20.900;2023-08-06T06:13:41;17.52;;;11.18;;
22284;SDS011;11311;52.192;20.900;2023-08-06T06:16:10;11.23;;;10.32;;
22284;SDS011;11311;52.192;20.900;2023-08-06T06:18:39;19.17;;;11.35;;
22284;SDS011;11311;52.192;20.900;2023-08-06T06:21:09;13.23;;;10.43;;
22284;SDS011;11311;52.192;20.900;2023-08-06T06:23:38;11.45;;;10.35;;
22284;SDS011;11311;52.192;20.900;2023-08-06T06:26:08;11.65;;;10.40;;
22284;SDS011;11311;52.192;20.900;2023-08-06T06:28:37;13.02;;;10.38;;
22284;SDS011;11311;52.192;20.900;2023-08-06T06:31:06;12.23;;;11.00;;
22284;SDS011;11311;52.192;20.900;2023-08-06T06:33:36;14.23;;;10.48;;
22284;SDS011;11311;52.192;20.900;2023-08-06T06:36:05;14.57;;;9.77;;
22284;SDS011;11311;52.192;20.900;2023-08-06T06:38:34;11.25;;;10.15;;
22284;SDS011;11311;52.192;20.900;2023-08-06T06:41:04;10.77;;;9.80;;
22284;SDS011;11311;52.192;20.900;2023-08-06T06:43:34;10.82;;;8.90;;
22284;SDS011;11311;52.192;20.900;2023-08-06T06:46:04;14.05;;;10.02;;
22284;SDS011;11311;52.192;20.900;2023-08-06T06:48:33;11.52;;;10.40;;
22284;SDS011;11311;52.192;20.900;2023-08-06T06:51:02;10.65;;;9.55;;
22284;SDS011;11311;52.192;20.900;2023-08-06T06:53:31;9.82;;;8.30;;
22284;SDS011;11311;52.192;20.900;2023-08-06T06:56:03;10.07;;;9.05;;
22284;SDS011;11311;52.192;20.900;2023-08-06T06:58:32;11.90;;;9.90;;
22284;SDS011;11311;52.192;20.900;2023-08-06T07:01:03;13.10;;;9.30;;
22284;SDS011;11311;52.192;20.900;2023-08-06T07:03:32;12.82;;;9.45;;
22284;SDS011;11311;52.192;20.900;2023-08-06T07:06:01;14.32;;;9.50;;
22284;SDS011;11311;52.192;20.900;2023-08-06T07:08:30;18.55;;;10.20;;
22284;SDS011;11311;52.192;20.900;2023-08-06T07:11:00;19.60;;;9.80;;
22284;SDS011;11311;52.192;20.900;2023-08-06T07:13:29;11.63;;;9.77;;
22284;SDS011;11311;52.192;20.900;2023-08-06T07:15:59;9.68;;;8.77;;
22284;SDS011;11311;52.192;20.900;2023-08-06T07:18:29;11.65;;;9.25;;
22284;SDS011;11311;52.192;20.900;2023-08-06T07:20:58;14.50;;;9.10;;
22284;SDS011;11311;52.192;20.900;2023-08-06T07:23:27;11.70;;;9.45;;
22284;SDS011;11311;52.192;20.900;2023-08-06T07:25:55;13.70;;;8.90;;
22284;SDS011;11311;52.192;20.900;2023-08-06T07:28:24;13.10;;;9.77;;
22284;SDS011;11311;52.192;20.900;2023-08-06T07:30:53;14.23;;;9.85;;
22284;SDS011;11311;52.192;20.900;2023-08-06T07:33:23;11.32;;;9.18;;
22284;SDS011;11311;52.192;20.900;2023-08-06T07:38:23;12.98;;;8.23;;
22284;SDS011;11311;52.192;20.900;2023-08-06T07:40:53;11.20;;;9.73;;
22284;SDS011;11311;52.192;20.900;2023-08-06T07:43:22;15.77;;;10.13;;
22284;SDS011;11311;52.192;20.900;2023-08-06T07:45:51;10.75;;;8.40;;
22284;SDS011;11311;52.192;20.900;2023-08-06T07:48:19;12.80;;;8.10;;
22284;SDS011;11311;52.192;20.900;2023-08-06T07:50:52;17.08;;;8.55;;
22284;SDS011;11311;52.192;20.900;2023-08-06T07:53:22;18.73;;;8.77;;
22284;SDS011;11311;52.192;20.900;2023-08-06T07:55:53;11.52;;;9.10;;
22284;SDS011;11311;52.192;20.900;2023-08-06T07:58:23;13.38;;;8.80;;
22284;SDS011;11311;52.192;20.900;2023-08-06T08:00:52;9.25;;;8.35;;
22284;SDS011;11311;52.192;20.900;2023-08-06T08:03:21;15.05;;;8.90;;
22284;SDS011;11311;52.192;20.900;2023-08-06T08:05:54;12.57;;;8.98;;
22284;SDS011;11311;52.192;20.900;2023-08-06T08:08:26;12.05;;;9.55;;
22284;SDS011;11311;52.192;20.900;2023-08-06T08:10:54;12.23;;;9.15;;
22284;SDS011;11311;52.192;20.900;2023-08-06T08:13:26;12.65;;;8.63;;
22284;SDS011;11311;52.192;20.900;2023-08-06T08:15:56;21.88;;;9.77;;
22284;SDS011;11311;52.192;20.900;2023-08-06T08:18:26;11.88;;;8.23;;
22284;SDS011;11311;52.192;20.900;2023-08-06T08:20:56;11.93;;;8.82;;
22284;SDS011;11311;52.192;20.900;2023-08-06T08:23:25;16.58;;;8.57;;
22284;SDS011;11311;52.192;20.900;2023-08-06T08:25:54;19.08;;;9.82;;
22284;SDS011;11311;52.192;20.900;2023-08-06T08:28:23;9.07;;;8.18;;
22284;SDS011;11311;52.192;20.900;2023-08-06T08:30:52;18.00;;;8.65;;
22284;SDS011;11311;52.192;20.900;2023-08-06T08:33:21;10.77;;;8.00;;
22284;SDS011;11311;52.192;20.900;2023-08-06T08:35:51;13.55;;;8.52;;
22284;SDS011;11311;52.192;20.900;2023-08-06T08:38:22;17.10;;;8.50;;
22284;SDS011;11311;52.192;20.900;2023-08-06T08:40:51;9.52;;;8.52;;
22284;SDS011;11311;52.192;20.900;2023-08-06T08:43:22;12.45;;;8.23;;
22284;SDS011;11311;52.192;20.900;2023-08-06T08:45:52;13.20;;;8.82;;
22284;SDS011;11311;52.192;20.900;2023-08-06T08:48:26;10.95;;;8.98;;
22284;SDS011;11311;52.192;20.900;2023-08-06T08:50:56;12.77;;;8.50;;
22284;SDS011;11311;52.192;20.900;2023-08-06T08:53:26;9.63;;;8.50;;
22284;SDS011;11311;52.192;20.900;2023-08-06T08:55:55;10.25;;;8.60;;
22284;SDS011;11311;52.192;20.900;2023-08-06T08:58:24;17.98;;;9.20;;
22284;SDS011;11311;52.192;20.900;2023-08-06T09:00:53;12.38;;;8.85;;
22284;SDS011;11311;52.192;20.900;2023-08-06T09:03:23;11.30;;;8.43;;
22284;SDS011;11311;52.192;20.900;2023-08-06T09:05:53;8.68;;;7.80;;
22284;SDS011;11311;52.192;20.900;2023-08-06T09:08:24;9.73;;;8.73;;
22284;SDS011;11311;52.192;20.900;2023-08-06T09:11:02;9.82;;;7.82;;
22284;SDS011;11311;52.192;20.900;2023-08-06T09:13:32;20.65;;;8.65;;
22284;SDS011;11311;52.192;20.900;2023-08-06T09:16:02;10.60;;;8.47;;
22284;SDS011;11311;52.192;20.900;2023-08-06T09:18:31;14.00;;;7.93;;
22284;SDS011;11311;52.192;20.900;2023-08-06T09:21:00;10.68;;;6.93;;
22284;SDS011;11311;52.192;20.900;2023-08-06T09:23:31;11.23;;;7.32;;
22284;SDS011;11311;52.192;20.900;2023-08-06T09:26:01;11.32;;;7.00;;
22284;SDS011;11311;52.192;20.900;2023-08-06T09:28:38;8.35;;;6.88;;
22284;SDS011;11311;52.192;20.900;2023-08-06T09:31:10;8.20;;;6.97;;
22284;SDS011;11311;52.192;20.900;2023-08-06T09:33:39;9.52;;;7.82;;
22284;SDS011;11311;52.192;20.900;2023-08-06T09:36:08;23.13;;;8.10;;
22284;SDS011;11311;52.192;20.900;2023-08-06T09:38:40;8.45;;;7.10;;
22284;SDS011;11311;52.192;20.900;2023-08-06T09:41:09;10.48;;;6.88;;
22284;SDS011;11311;52.192;20.900;2023-08-06T09:43:41;8.40;;;6.55;;
22284;SDS011;11311;52.192;20.900;2023-08-06T09:46:11;12.15;;;6.75;;
22284;SDS011;11311;52.192;20.900;2023-08-06T09:48:44;12.05;;;6.95;;
22284;SDS011;11311;52.192;20.900;2023-08-06T09:51:14;9.13;;;6.40;;
22284;SDS011;11311;52.192;20.900;2023-08-06T09:53:44;10.50;;;6.45;;
22284;SDS011;11311;52.192;20.900;2023-08-06T09:56:16;10.73;;;6.45;;
22284;SDS011;11311;52.192;20.900;2023-08-06T09:58:47;10.65;;;7.25;;
22284;SDS011;11311;52.192;20.900;2023-08-06T10:01:17;13.30;;;5.85;;
22284;SDS011;11311;52.192;20.900;2023-08-06T10:03:47;8.07;;;5.93;;
22284;SDS011;11311;52.192;20.900;2023-08-06T10:06:17;7.88;;;5.68;;
22284;SDS011;11311;52.192;20.900;2023-08-06T10:08:50;14.80;;;6.70;;
22284;SDS011;11311;52.192;20.900;2023-08-06T10:11:19;6.57;;;5.82;;
22284;SDS011;11311;52.192;20.900;2023-08-06T10:13:50;12.13;;;6.55;;
22284;SDS011;11311;52.192;20.900;2023-08-06T10:16:26;13.32;;;5.85;;
22284;SDS011;11311;52.192;20.900;2023-08-06T10:18:56;9.75;;;5.45;;
22284;SDS011;11311;52.192;20.900;2023-08-06T10:21:26;7.47;;;5.85;;
22284;SDS011;11311;52.192;20.900;2023-08-06T10:23:58;10.23;;;5.85;;
22284;SDS011;11311;52.192;20.900;2023-08-06T10:26:29;7.43;;;4.85;;
22284;SDS011;11311;52.192;20.900;2023-08-06T10:28:58;9.27;;;5.17;;
22284;SDS011;11311;52.192;20.900;2023-08-06T10:34:22;14.15;;;5.00;;
22284;SDS011;11311;52.192;20.900;2023-08-06T10:36:53;11.13;;;5.93;;
22284;SDS011;11311;52.192;20.900;2023-08-06T10:39:25;11.55;;;5.82;;
22284;SDS011;11311;52.192;20.900;2023-08-06T10:41:57;12.52;;;6.30;;
22284;SDS011;11311;52.192;20.900;2023-08-06T10:44:27;9.15;;;6.05;;
22284;SDS011;11311;52.192;20.900;2023-08-06T10:47:12;11.73;;;5.38;;
22284;SDS011;11311;52.192;20.900;2023-08-06T10:49:54;6.55;;;5.15;;
22284;SDS011;11311;52.192;20.900;2023-08-06T10:52:23;8.25;;;6.05;;
22284;SDS011;11311;52.192;20.900;2023-08-06T10:54:55;9.47;;;6.33;;
22284;SDS011;11311;52.192;20.900;2023-08-06T10:57:24;8.50;;;6.20;;
22284;SDS011;11311;52.192;20.900;2023-08-06T10:59:52;7.20;;;5.50;;
22284;SDS011;11311;52.192;20.900;2023-08-06T11:02:41;6.20;;;5.22;;
22284;SDS011;11311;52.192;20.900;2023-08-06T11:05:11;10.60;;;5.90;;
22284;SDS011;11311;52.192;20.900;2023-08-06T11:07:40;9.10;;;5.70;;
22284;SDS011;11311;52.192;20.900;2023-08-06T11:10:11;5.78;;;5.20;;
22284;SDS011;11311;52.192;20.900;2023-08-06T11:12:41;21.55;;;6.07;;
22284;SDS011;11311;52.192;20.900;2023-08-06T11:15:10;10.60;;;5.47;;
22284;SDS011;11311;52.192;20.900;2023-08-06T11:17:39;12.75;;;5.70;;
22284;SDS011;11311;52.192;20.900;2023-08-06T11:20:10;11.63;;;5.40;;
22284;SDS011;11311;52.192;20.900;2023-08-06T11:22:41;7.93;;;5.45;;
22284;SDS011;11311;52.192;20.900;2023-08-06T11:25:12;7.35;;;5.20;;
22284;SDS011;11311;52.192;20.900;2023-08-06T11:27:41;9.88;;;4.63;;
22284;SDS011;11311;52.192;20.900;2023-08-06T11:30:10;7.75;;;4.57;;
22284;SDS011;11311;52.192;20.900;2023-08-06T11:32:46;13.07;;;5.50;;
22284;SDS011;11311;52.192;20.900;2023-08-06T11:35:15;5.35;;;4.60;;
22284;SDS011;11311;52.192;20.900;2023-08-06T11:37:44;6.10;;;4.70;;
22284;SDS011;11311;52.192;20.900;2023-08-06T11:40:15;6.43;;;4.07;;
22284;SDS011;11311;52.192;20.900;2023-08-06T11:42:46;6.38;;;5.03;;
22284;SDS011;11311;52.192;20.900;2023-08-06T11:45:16;7.25;;;4.47;;
22284;SDS011;11311;52.192;20.900;2023-08-06T11:47:49;5.60;;;4.63;;
22284;SDS011;11311;52.192;20.900;2023-08-06T11:50:22;7.30;;;4.63;;
22284;SDS011;11311;52.192;20.900;2023-08-06T11:52:55;6.53;;;4.45;;
22284;SDS011;11311;52.192;20.900;2023-08-06T11:55:27;5.65;;;4.72;;
22284;SDS011;11311;52.192;20.900;2023-08-06T11:57:57;8.15;;;3.85;;
22284;SDS011;11311;52.192;20.900;2023-08-06T12:00:26;8.25;;;4.80;;
22284;SDS011;11311;52.192;20.900;2023-08-06T12:02:57;7.93;;;4.25;;
22284;SDS011;11311;52.192;20.900;2023-08-06T12:05:29;6.22;;;4.60;;
22284;SDS011;11311;52.192;20.900;2023-08-06T12:08:00;6.03;;;4.63;;
22284;SDS011;11311;52.192;20.900;2023-08-06T12:10:32;7.43;;;4.95;;
22284;SDS011;11311;52.192;20.900;2023-08-06T12:13:01;4.75;;;4.25;;
22284;SDS011;11311;52.192;20.900;2023-08-06T12:15:31;7.35;;;4.82;;
22284;SDS011;11311;52.192;20.900;2023-08-06T12:18:02;5.60;;;4.07;;
22284;SDS011;11311;52.192;20.900;2023-08-06T12:20:31;7.47;;;5.20;;
22284;SDS011;11311;52.192;20.900;2023-08-06T12:23:00;7.40;;;3.87;;
22284;SDS011;11311;52.192;20.900;2023-08-06T12:25:29;5.72;;;4.07;;
22284;SDS011;11311;52.192;20.900;2023-08-06T12:28:00;6.00;;;5.45;;
22284;SDS011;11311;52.192;20.900;2023-08-06T12:30:29;9.25;;;4.25;;
22284;SDS011;11311;52.192;20.900;2023-08-06T12:32:58;10.68;;;5.00;;
22284;SDS011;11311;52.192;20.900;2023-08-06T12:35:27;8.57;;;4.30;;
22284;SDS011;11311;52.192;20.900;2023-08-06T12:37:57;5.38;;;4.88;;
22284;SDS011;11311;52.192;20.900;2023-08-06T12:40:26;8.30;;;6.55;;
22284;SDS011;11311;52.192;20.900;2023-08-06T12:43:06;9.73;;;5.07;;
22284;SDS011;11311;52.192;20.900;2023-08-06T12:45:35;7.85;;;5.00;;
22284;SDS011;11311;52.192;20.900;2023-08-06T12:48:04;9.67;;;5.37;;
22284;SDS011;11311;52.192;20.900;2023-08-06T12:50:33;13.05;;;6.07;;
22284;SDS011;11311;52.192;20.900;2023-08-06T12:53:02;14.20;;;5.65;;
22284;SDS011;11311;52.192;20.900;2023-08-06T12:55:33;6.38;;;5.00;;
22284;SDS011;11311;52.192;20.900;2023-08-06T12:58:02;9.98;;;5.25;;
22284;SDS011;11311;52.192;20.900;2023-08-06T13:00:32;8.13;;;4.80;;
22284;SDS011;11311;52.192;20.900;2023-08-06T13:03:01;5.68;;;4.45;;
22284;SDS011;11311;52.192;20.900;2023-08-06T13:05:31;4.90;;;4.43;;
22284;SDS011;11311;52.192;20.900;2023-08-06T13:08:00;8.63;;;4.53;;
22284;SDS011;11311;52.192;20.900;2023-08-06T13:10:28;6.32;;;5.05;;
22284;SDS011;11311;52.192;20.900;2023-08-06T13:12:58;7.18;;;4.55;;
22284;SDS011;11311;52.192;20.900;2023-08-06T13:15:27;14.30;;;5.05;;
22284;SDS011;11311;52.192;20.900;2023-08-06T13:17:57;6.03;;;4.53;;
22284;SDS011;11311;52.192;20.900;2023-08-06T13:20:27;6.22;;;4.63;;
22284;SDS011;11311;52.192;20.900;2023-08-06T13:22:58;4.43;;;3.97;;
22284;SDS011;11311;52.192;20.900;2023-08-06T13:25:27;11.70;;;4.47;;
22284;SDS011;11311;52.192;20.900;2023-08-06T13:27:56;4.47;;;4.07;;
22284;SDS011;11311;52.192;20.900;2023-08-06T13:30:25;6.82;;;4.22;;
22284;SDS011;11311;52.192;20.900;2023-08-06T13:32:54;6.45;;;4.40;;
22284;SDS011;11311;52.192;20.900;2023-08-06T13:35:25;7.88;;;3.75;;
22284;SDS011;11311;52.192;20.900;2023-08-06T13:37:53;6.32;;;4.22;;
22284;SDS011;11311;52.192;20.900;2023-08-06T13:40:22;5.43;;;4.28;;
22284;SDS011;11311;52.192;20.900;2023-08-06T13:42:51;8.65;;;4.65;;
22284;SDS011;11311;52.192;20.900;2023-08-06T13:45:20;4.47;;;4.07;;
22284;SDS011;11311;52.192;20.900;2023-08-06T13:47:49;5.10;;;4.60;;
22284;SDS011;11311;52.192;20.900;2023-08-06T13:50:18;6.18;;;5.05;;
22284;SDS011;11311;52.192;20.900;2023-08-06T13:52:50;4.72;;;4.25;;
22284;SDS011;11311;52.192;20.900;2023-08-06T13:55:20;4.93;;;4.53;;
22284;SDS011;11311;52.192;20.900;2023-08-06T13:57:49;9.88;;;4.05;;
22284;SDS011;11311;52.192;20.900;2023-08-06T14:00:18;5.28;;;4.50;;
22284;SDS011;11311;52.192;20.900;2023-08-06T14:02:47;5.28;;;4.85;;
22284;SDS011;11311;52.192;20.900;2023-08-06T14:05:16;6.05;;;5.18;;
22284;SDS011;11311;52.192;20.900;2023-08-06T14:07:45;8.48;;;4.95;;
22284;SDS011;11311;52.192;20.900;2023-08-06T14:10:16;5.28;;;4.75;;
22284;SDS011;11311;52.192;20.900;2023-08-06T14:12:45;6.90;;;5.38;;
22284;SDS011;11311;52.192;20.900;2023-08-06T14:15:31;4.95;;;4.47;;
22284;SDS011;11311;52.192;20.900;2023-08-06T14:18:01;5.43;;;4.55;;
22284;SDS011;11311;52.192;20.900;2023-08-06T14:20:30;5.43;;;4.20;;
22284;SDS011;11311;52.192;20.900;2023-08-06T14:22:59;4.97;;;4.57;;
22284;SDS011;11311;52.192;20.900;2023-08-06T14:25:29;4.88;;;4.40;;
22284;SDS011;11311;52.192;20.900;2023-08-06T14:27:59;9.07;;;3.97;;
22284;SDS011;11311;52.192;20.900;2023-08-06T14:30:28;4.55;;;4.25;;
22284;SDS011;11311;52.192;20.900;2023-08-06T14:32:57;7.43;;;3.97;;
22284;SDS011;11311;52.192;20.900;2023-08-06T14:35:42;5.15;;;4.65;;
22284;SDS011;11311;52.192;20.900;2023-08-06T14:38:11;5.28;;;4.60;;
22284;SDS011;11311;52.192;20.900;2023-08-06T14:40:42;5.75;;;4.32;;
22284;SDS011;11311;52.192;20.900;2023-08-06T14:43:12;4.30;;;4.00;;
22284;SDS011;11311;52.192;20.900;2023-08-06T14:45:42;6.63;;;4.25;;
22284;SDS011;11311;52.192;20.900;2023-08-06T14:48:10;4.28;;;3.90;;
22284;SDS011;11311;52.192;20.900;2023-08-06T14:50:39;5.28;;;3.92;;
22284;SDS011;11311;52.192;20.900;2023-08-06T14:53:08;4.15;;;2.60;;
22284;SDS011;11311;52.192;20.900;2023-08-06T14:58:10;3.35;;;2.85;;
22284;SDS011;11311;52.192;20.900;2023-08-06T15:00:40;3.40;;;2.60;;
22284;SDS011;11311;52.192;20.900;2023-08-06T15:03:09;3.78;;;2.05;;
22284;SDS011;11311;52.192;20.900;2023-08-06T15:05:38;4.30;;;1.80;;
22284;SDS011;11311;52.192;20.900;2023-08-06T15:08:07;2.70;;;2.15;;
22284;SDS011;11311;52.192;20.900;2023-08-06T15:10:35;1.83;;;1.73;;
22284;SDS011;11311;52.192;20.900;2023-08-06T15:13:04;2.55;;;1.80;;
22284;SDS011;11311;52.192;20.900;2023-08-06T15:15:35;1.95;;;1.65;;
22284;SDS011;11311;52.192;20.900;2023-08-06T15:18:08;1.77;;;1.67;;
22284;SDS011;11311;52.192;20.900;2023-08-06T15:20:38;1.95;;;1.83;;